Time;durP1;ratioP1;P1;durP2;ratioP2;P2;SDS_P1;SDS_P2;PMS_P1;PMS_P2;Temp;Humidity;BMP_temperature;BMP_pressure;BME280_temperature;BME280_humidity;BME280_pressure;Samples;Min_cycle;Max_cycle;Signal;HPM_P1;HPM_P2
2021/11/26 00:02:17;;;;;;;2.97;1.67;;;22.00;33.60;;;;;;5024771;28;20030;-50
2021/11/26 00:04:43;;;;;;;2.85;1.48;;;22.00;33.60;;;;;;5014460;28;20144;-52
2021/11/26 00:07:10;;;;;;;2.13;1.13;;;21.90;33.50;;;;;;5020793;28;20025;-56
2021/11/26 00:09:36;;;;;;;2.20;1.20;;;21.90;33.50;;;;;;5014656;28;20373;-58
2021/11/26 00:12:02;;;;;;;2.22;1.30;;;21.90;33.50;;;;;;5013001;28;20037;-56
2021/11/26 00:14:31;;;;;;;2.97;1.27;;;21.90;33.50;;;;;;5017895;28;20100;-53
2021/11/26 00:16:58;;;;;;;2.20;1.27;;;21.90;33.50;;;;;;5015952;28;20092;-49
2021/11/26 00:19:27;;;;;;;2.65;1.52;;;21.90;33.50;;;;;;5014460;28;20453;-53
2021/11/26 00:21:54;;;;;;;3.35;1.73;;;21.90;33.50;;;;;;5016017;28;20412;-52
2021/11/26 00:24:20;;;;;;;2.40;1.40;;;21.90;33.50;;;;;;5017027;28;20033;-46
2021/11/26 00:26:47;;;;;;;3.10;1.30;;;21.80;33.40;;;;;;5030989;28;20029;-51
2021/11/26 00:29:13;;;;;;;2.88;1.40;;;21.90;33.50;;;;;;5016743;28;20069;-54
2021/11/26 00:31:39;;;;;;;2.35;1.15;;;21.90;33.40;;;;;;5021404;28;20029;-49
2021/11/26 00:34:06;;;;;;;3.42;1.67;;;21.90;33.40;;;;;;5017204;28;20061;-56
2021/11/26 00:36:32;;;;;;;4.10;1.90;;;21.90;33.50;;;;;;5029966;28;20348;-50
2021/11/26 00:38:58;;;;;;;2.95;1.40;;;21.80;33.40;;;;;;5024708;28;20076;-54
2021/11/26 00:41:24;;;;;;;3.25;1.38;;;21.80;33.40;;;;;;5022539;28;20056;-56
2021/11/26 00:43:51;;;;;;;3.42;1.40;;;21.80;33.50;;;;;;5021445;28;20062;-53
2021/11/26 00:46:17;;;;;;;2.83;1.30;;;21.80;33.50;;;;;;5020164;28;20037;-52
2021/11/26 00:48:43;;;;;;;2.30;1.20;;;21.80;33.50;;;;;;5013752;28;20041;-54
2021/11/26 00:51:09;;;;;;;3.40;1.50;;;21.80;33.50;;;;;;5016869;28;20030;-52
2021/11/26 00:53:36;;;;;;;2.60;1.48;;;21.80;33.50;;;;;;5020479;28;20155;-53
2021/11/26 00:56:02;;;;;;;3.15;1.58;;;21.80;33.50;;;;;;5015054;28;20037;-47
2021/11/26 00:58:28;;;;;;;2.85;1.35;;;21.80;33.50;;;;;;5015168;28;20064;-51
2021/11/26 01:00:54;;;;;;;2.58;1.63;;;21.70;33.40;;;;;;5014300;28;20369;-45
2021/11/26 01:03:20;;;;;;;2.15;1.17;;;21.70;33.40;;;;;;5018579;28;20119;-49
2021/11/26 01:05:47;;;;;;;2.08;1.10;;;21.70;33.40;;;;;;5016977;28;20042;-47
2021/11/26 01:08:13;;;;;;;2.47;1.30;;;21.70;33.40;;;;;;5018999;28;20037;-52
2021/11/26 01:10:40;;;;;;;2.30;1.30;;;21.70;33.40;;;;;;5023084;28;20091;-46
2021/11/26 01:13:05;;;;;;;2.33;1.30;;;21.70;33.40;;;;;;5022997;28;20041;-49
2021/11/26 01:15:32;;;;;;;1.90;1.17;;;21.70;33.40;;;;;;5029194;28;20040;-48
2021/11/26 01:17:58;;;;;;;2.42;1.30;;;21.70;33.40;;;;;;5025312;28;20029;-51
2021/11/26 01:20:28;;;;;;;2.90;1.42;;;21.70;33.40;;;;;;5029102;28;20095;-55
2021/11/26 01:22:54;;;;;;;2.13;1.20;;;21.70;33.40;;;;;;5014094;28;20044;-54
2021/11/26 01:25:21;;;;;;;2.50;1.30;;;21.70;33.40;;;;;;5022116;28;20332;-58
2021/11/26 01:27:47;;;;;;;2.90;1.35;;;21.70;33.40;;;;;;5029107;28;20038;-51
2021/11/26 01:30:25;;;;;;;2.20;1.20;;;21.70;33.40;;;;;;5028117;28;20022;-55
2021/11/26 01:32:53;;;;;;;2.60;1.30;;;21.70;33.40;;;;;;5016353;28;20160;-50
2021/11/26 01:35:19;;;;;;;1.98;1.10;;;21.70;33.40;;;;;;5030481;28;20096;-53
2021/11/26 01:37:45;;;;;;;2.47;1.23;;;21.60;33.40;;;;;;5021821;28;20025;-51
2021/11/26 01:40:12;;;;;;;1.63;1.00;;;21.60;33.40;;;;;;5025192;28;20107;-54
2021/11/26 01:42:38;;;;;;;2.08;1.20;;;21.60;33.40;;;;;;5028254;28;20536;-46
2021/11/26 01:45:05;;;;;;;2.45;1.25;;;21.60;33.40;;;;;;5016806;28;21620;-51
2021/11/26 01:47:31;;;;;;;2.90;1.27;;;21.60;33.40;;;;;;5028506;28;20072;-50
2021/11/26 01:49:57;;;;;;;2.25;1.20;;;21.60;33.40;;;;;;5016985;28;20441;-52
2021/11/26 01:52:23;;;;;;;1.40;0.88;;;21.60;33.40;;;;;;5020042;28;20469;-55
2021/11/26 01:54:49;;;;;;;2.90;1.20;;;21.60;33.40;;;;;;5017228;28;20030;-53
2021/11/26 01:57:17;;;;;;;2.90;1.05;;;21.60;33.40;;;;;;5016941;28;20045;-54
2021/11/26 01:59:43;;;;;;;2.13;1.10;;;21.60;33.40;;;;;;5034847;28;20043;-52
2021/11/26 02:02:09;;;;;;;1.60;0.90;;;21.60;33.50;;;;;;5025059;28;20120;-55
2021/11/26 02:04:35;;;;;;;2.05;1.20;;;21.60;33.50;;;;;;5031829;28;20025;-52
2021/11/26 02:07:01;;;;;;;1.77;0.90;;;21.60;33.40;;;;;;5023058;28;20034;-52
2021/11/26 02:09:28;;;;;;;2.40;1.10;;;21.60;33.40;;;;;;5021202;28;20116;-49
2021/11/26 02:11:54;;;;;;;1.80;1.00;;;21.60;33.50;;;;;;5019213;28;20457;-51
2021/11/26 02:14:20;;;;;;;1.60;0.80;;;21.60;33.50;;;;;;5017413;28;20068;-47
2021/11/26 02:16:48;;;;;;;1.30;0.77;;;21.60;33.50;;;;;;5029752;28;21617;-56
2021/11/26 02:19:15;;;;;;;2.40;1.13;;;21.50;33.40;;;;;;5025271;28;20061;-53
2021/11/26 02:21:42;;;;;;;2.10;0.90;;;21.60;33.50;;;;;;5017357;28;20052;-53
2021/11/26 02:24:08;;;;;;;1.95;0.98;;;21.60;33.50;;;;;;5017736;28;20412;-56
2021/11/26 02:26:38;;;;;;;1.65;0.80;;;21.50;33.50;;;;;;5019444;28;20038;-48
2021/11/26 02:29:04;;;;;;;1.63;0.90;;;21.60;33.60;;;;;;5022694;28;20045;-48
2021/11/26 02:31:30;;;;;;;1.58;0.85;;;21.50;33.60;;;;;;5026016;28;20460;-56
2021/11/26 02:33:56;;;;;;;1.25;0.70;;;21.50;33.60;;;;;;5027920;28;21277;-53
2021/11/26 02:36:22;;;;;;;1.50;0.80;;;21.50;33.60;;;;;;5020510;28;20091;-48
2021/11/26 02:38:48;;;;;;;1.13;0.75;;;21.50;33.60;;;;;;5029422;28;20017;-57
2021/11/26 02:41:13;;;;;;;1.10;0.60;;;21.50;33.60;;;;;;5031875;28;20478;-51
2021/11/26 02:43:39;;;;;;;1.17;0.70;;;21.50;33.60;;;;;;5020952;28;20062;-54
2021/11/26 02:46:05;;;;;;;2.45;0.80;;;21.50;33.60;;;;;;5019588;28;20026;-48
2021/11/26 02:48:31;;;;;;;0.75;0.60;;;21.50;33.60;;;;;;5020354;28;20032;-48
2021/11/26 02:50:57;;;;;;;1.35;0.63;;;21.50;34.30;;;;;;5016968;28;20345;-53
2021/11/26 02:53:22;;;;;;;1.45;0.60;;;21.40;33.60;;;;;;5023519;28;20365;-55
2021/11/26 02:55:48;;;;;;;1.20;0.60;;;21.40;33.60;;;;;;5017683;28;20428;-49
2021/11/26 02:58:15;;;;;;;1.70;0.70;;;21.40;33.60;;;;;;5017846;28;20057;-52
2021/11/26 03:00:44;;;;;;;1.45;0.57;;;21.40;33.70;;;;;;5028379;28;20026;-50
2021/11/26 03:03:09;;;;;;;0.88;0.52;;;21.40;33.70;;;;;;5027864;28;20039;-46
2021/11/26 03:05:36;;;;;;;1.65;0.65;;;21.40;33.70;;;;;;5020257;28;20037;-53
2021/11/26 03:08:04;;;;;;;1.20;0.70;;;21.40;33.70;;;;;;5013257;28;20048;-52
2021/11/26 03:10:31;;;;;;;0.60;0.50;;;21.40;33.70;;;;;;5024192;28;20411;-59
2021/11/26 03:13:01;;;;;;;1.30;0.60;;;21.40;33.80;;;;;;5020468;28;20627;-51
2021/11/26 03:15:27;;;;;;;0.95;0.57;;;21.40;33.80;;;;;;5020946;28;20057;-57
2021/11/26 03:17:55;;;;;;;1.67;0.50;;;21.40;33.80;;;;;;5026194;28;20057;-51
2021/11/26 03:20:21;;;;;;;0.95;0.55;;;21.40;33.80;;;;;;5025678;28;20052;-53
2021/11/26 03:22:47;;;;;;;0.70;0.40;;;21.40;33.90;;;;;;5024860;28;20029;-51
2021/11/26 03:25:13;;;;;;;1.38;0.70;;;21.40;33.90;;;;;;5025078;28;20060;-53
2021/11/26 03:27:39;;;;;;;1.77;0.60;;;21.40;33.90;;;;;;5015420;28;20421;-50
2021/11/26 03:30:06;;;;;;;0.85;0.40;;;21.40;33.90;;;;;;5030686;28;20025;-52
2021/11/26 03:32:32;;;;;;;0.63;0.40;;;21.40;33.90;;;;;;5031085;28;20048;-58
2021/11/26 03:34:58;;;;;;;1.50;0.55;;;21.40;34.00;;;;;;5024578;28;20025;-50
2021/11/26 03:37:24;;;;;;;1.38;0.60;;;21.40;34.00;;;;;;5025887;28;20368;-54
2021/11/26 03:39:49;;;;;;;1.20;0.60;;;21.40;34.00;;;;;;5021116;28;20089;-52
2021/11/26 03:42:15;;;;;;;0.73;0.45;;;21.40;34.00;;;;;;5019568;28;20113;-52
2021/11/26 03:44:41;;;;;;;1.00;0.40;;;21.40;34.00;;;;;;5022944;28;20116;-48
2021/11/26 03:47:07;;;;;;;0.93;0.40;;;21.40;34.00;;;;;;5013638;28;20037;-51
2021/11/26 03:49:33;;;;;;;0.98;0.50;;;21.30;34.00;;;;;;5016707;28;20044;-54
2021/11/26 03:51:58;;;;;;;0.75;0.40;;;21.40;34.10;;;;;;5030407;28;20352;-48
2021/11/26 03:54:24;;;;;;;1.20;0.50;;;21.30;34.00;;;;;;5016496;28;20037;-49
2021/11/26 03:56:50;;;;;;;0.95;0.50;;;21.40;34.10;;;;;;5023534;28;20065;-52
2021/11/26 03:59:16;;;;;;;1.45;0.73;;;21.30;34.00;;;;;;5019653;28;20030;-52
2021/11/26 04:01:42;;;;;;;0.90;0.35;;;21.30;34.10;;;;;;5014315;28;20033;-55
2021/11/26 04:04:08;;;;;;;0.60;0.50;;;21.30;34.10;;;;;;5023083;28;20034;-50
2021/11/26 04:06:33;;;;;;;0.30;0.30;;;21.30;34.10;;;;;;5024908;28;20038;-49
2021/11/26 04:08:59;;;;;;;0.70;0.40;;;21.30;34.10;;;;;;5031686;28;20025;-48
2021/11/26 04:11:26;;;;;;;1.05;0.52;;;21.30;34.10;;;;;;5021774;28;20053;-56
2021/11/26 04:13:52;;;;;;;0.50;0.30;;;21.30;34.10;;;;;;5021205;28;20077;-50
2021/11/26 04:16:18;;;;;;;1.17;0.57;;;21.30;34.10;;;;;;5020296;28;20413;-53
2021/11/26 04:18:44;;;;;;;1.83;0.65;;;21.30;34.20;;;;;;5015001;28;20058;-53
2021/11/26 04:21:11;;;;;;;0.77;0.50;;;21.30;34.20;;;;;;5021868;28;20056;-51
2021/11/26 04:23:37;;;;;;;0.90;0.40;;;21.30;34.20;;;;;;5020137;28;20045;-50
2021/11/26 04:26:03;;;;;;;0.98;0.32;;;21.30;34.20;;;;;;5015183;28;20025;-47
2021/11/26 04:28:28;;;;;;;0.82;0.30;;;21.30;34.20;;;;;;5025490;28;20068;-50
2021/11/26 04:30:54;;;;;;;0.77;0.40;;;21.30;34.20;;;;;;5014833;28;20464;-53
2021/11/26 04:33:20;;;;;;;0.68;0.40;;;21.20;34.20;;;;;;5019427;28;20129;-51
2021/11/26 04:35:49;;;;;;;0.77;0.25;;;21.30;34.20;;;;;;5014545;28;20104;-51
2021/11/26 04:38:17;;;;;;;0.65;0.40;;;21.30;34.20;;;;;;5025515;28;20030;-49
2021/11/26 04:40:43;;;;;;;0.50;0.30;;;21.20;34.20;;;;;;5021011;28;20026;-55
2021/11/26 04:43:09;;;;;;;1.10;0.47;;;21.30;34.30;;;;;;5017612;28;20060;-50
2021/11/26 04:45:35;;;;;;;0.63;0.40;;;21.20;34.20;;;;;;5015623;28;20057;-57
2021/11/26 04:48:00;;;;;;;1.50;0.68;;;21.20;34.20;;;;;;5014008;28;20495;-48
2021/11/26 04:50:26;;;;;;;0.77;0.40;;;21.20;34.20;;;;;;5030097;28;20026;-50
2021/11/26 04:52:53;;;;;;;0.93;0.40;;;21.20;34.20;;;;;;5014535;28;20041;-49
2021/11/26 04:55:20;;;;;;;0.43;0.20;;;21.20;34.20;;;;;;5015941;28;20052;-50
2021/11/26 04:57:47;;;;;;;0.80;0.40;;;21.20;34.20;;;;;;5019505;28;20129;-50
2021/11/26 05:00:15;;;;;;;0.77;0.30;;;21.20;34.20;;;;;;5016635;28;20033;-50
2021/11/26 05:02:43;;;;;;;0.28;0.20;;;21.20;34.20;;;;;;5014472;28;20029;-50
2021/11/26 05:05:09;;;;;;;0.32;0.30;;;21.20;34.20;;;;;;5014911;28;20041;-51
2021/11/26 05:07:35;;;;;;;0.65;0.28;;;21.20;34.30;;;;;;5024456;28;20065;-52
2021/11/26 05:10:06;;;;;;;0.60;0.38;;;21.20;34.90;;;;;;5025091;28;20045;-52
2021/11/26 05:12:36;;;;;;;0.50;0.32;;;21.20;34.30;;;;;;5023483;28;20065;-55
2021/11/26 05:15:03;;;;;;;0.45;0.30;;;21.20;34.30;;;;;;5019557;28;20033;-58
2021/11/26 05:17:29;;;;;;;1.15;0.55;;;21.20;34.90;;;;;;5025750;28;20071;-49
2021/11/26 05:19:55;;;;;;;0.20;0.13;;;21.20;34.30;;;;;;5024389;28;20451;-49
2021/11/26 05:22:21;;;;;;;0.63;0.40;;;21.20;34.30;;;;;;5025779;28;20026;-53
2021/11/26 05:24:47;;;;;;;0.35;0.20;;;21.20;34.30;;;;;;5032460;28;20033;-47
2021/11/26 05:27:13;;;;;;;0.35;0.22;;;21.20;34.30;;;;;;5022750;28;20052;-52
2021/11/26 05:29:38;;;;;;;0.43;0.25;;;21.20;34.30;;;;;;5025395;28;20133;-48
2021/11/26 05:32:04;;;;;;;1.35;0.30;;;21.20;34.30;;;;;;5024171;28;20049;-51
2021/11/26 05:34:30;;;;;;;0.20;0.20;;;21.20;34.30;;;;;;5031609;28;20042;-55
2021/11/26 05:36:56;;;;;;;0.50;0.30;;;21.20;34.30;;;;;;5019421;28;20029;-56
2021/11/26 05:39:22;;;;;;;0.73;0.40;;;21.20;34.30;;;;;;5023439;28;20440;-50
2021/11/26 05:41:47;;;;;;;1.05;0.40;;;21.20;34.40;;;;;;5031048;28;20026;-49
2021/11/26 05:44:13;;;;;;;0.55;0.28;;;21.20;34.40;;;;;;5023872;28;20045;-53
2021/11/26 05:46:39;;;;;;;0.43;0.20;;;21.10;34.30;;;;;;5029044;28;20037;-48
2021/11/26 05:49:05;;;;;;;0.30;0.25;;;21.10;34.30;;;;;;5018206;28;20033;-53
2021/11/26 05:51:30;;;;;;;0.80;0.35;;;21.10;34.30;;;;;;5018927;28;20594;-50
2021/11/26 05:53:56;;;;;;;0.60;0.35;;;21.10;34.30;;;;;;5030754;28;20124;-47
2021/11/26 05:56:22;;;;;;;0.95;0.22;;;21.10;34.30;;;;;;5034537;28;20033;-51
2021/11/26 05:58:48;;;;;;;0.30;0.20;;;21.10;34.30;;;;;;5016926;28;20414;-47
2021/11/26 06:01:14;;;;;;;0.45;0.20;;;21.20;34.40;;;;;;5026456;28;20073;-51
2021/11/26 06:03:40;;;;;;;0.30;0.20;;;21.10;34.30;;;;;;5016817;28;20100;-50
2021/11/26 06:06:06;;;;;;;0.57;0.20;;;21.10;34.30;;;;;;5017235;28;20440;-56
2021/11/26 06:08:31;;;;;;;0.35;0.30;;;21.10;34.30;;;;;;5024438;28;20034;-49
2021/11/26 06:10:57;;;;;;;0.32;0.25;;;21.10;34.20;;;;;;5027590;28;20022;-51
2021/11/26 06:13:23;;;;;;;0.80;0.30;;;21.10;34.30;;;;;;5019656;28;20188;-55
2021/11/26 06:15:49;;;;;;;1.23;0.45;;;21.10;34.20;;;;;;5025034;28;20022;-56
2021/11/26 06:18:15;;;;;;;0.43;0.30;;;21.10;34.20;;;;;;5017416;28;20030;-54
2021/11/26 06:20:41;;;;;;;0.80;0.38;;;21.10;34.20;;;;;;5016582;28;20045;-46
2021/11/26 06:23:07;;;;;;;1.08;0.30;;;21.10;34.20;;;;;;5024862;28;20044;-53
2021/11/26 06:25:32;;;;;;;1.05;0.30;;;21.10;34.20;;;;;;5016240;28;20389;-48
2021/11/26 06:27:58;;;;;;;0.75;0.30;;;21.10;34.20;;;;;;5015041;28;20091;-49
2021/11/26 06:30:26;;;;;;;0.50;0.28;;;21.10;34.20;;;;;;5025124;28;20037;-48
2021/11/26 06:32:53;;;;;;;0.50;0.30;;;21.10;34.20;;;;;;5019399;28;20449;-47
2021/11/26 06:35:20;;;;;;;0.88;0.30;;;21.00;34.20;;;;;;5036168;28;20068;-49
2021/11/26 06:37:48;;;;;;;0.80;0.32;;;21.10;34.20;;;;;;5025606;28;20026;-53
2021/11/26 06:40:14;;;;;;;0.47;0.20;;;21.10;34.20;;;;;;5015441;28;20527;-54
2021/11/26 06:42:40;;;;;;;0.30;0.28;;;21.10;34.20;;;;;;5016377;28;20026;-51
2021/11/26 06:45:08;;;;;;;0.43;0.30;;;21.00;34.20;;;;;;5019756;28;20041;-51
2021/11/26 06:47:34;;;;;;;0.98;0.30;;;21.10;34.20;;;;;;5024815;28;20160;-52
2021/11/26 06:50:00;;;;;;;0.57;0.20;;;21.00;34.20;;;;;;5032235;28;20037;-52
2021/11/26 06:52:26;;;;;;;0.40;0.32;;;21.00;34.20;;;;;;5020322;28;20037;-52
2021/11/26 06:54:52;;;;;;;0.63;0.30;;;21.00;34.20;;;;;;5031081;28;20544;-51
2021/11/26 06:57:18;;;;;;;1.40;0.40;;;21.00;34.20;;;;;;5031882;28;20045;-49
2021/11/26 06:59:44;;;;;;;0.98;0.50;;;21.00;34.20;;;;;;5024012;28;20441;-50
2021/11/26 07:02:10;;;;;;;0.82;0.43;;;21.00;34.30;;;;;;5024969;28;20060;-55
2021/11/26 07:04:37;;;;;;;1.10;0.50;;;21.00;34.30;;;;;;5023368;28;20030;-58
2021/11/26 07:07:03;;;;;;;1.27;0.52;;;21.00;34.30;;;;;;5026130;28;20108;-53
2021/11/26 07:09:29;;;;;;;1.25;0.40;;;21.00;34.40;;;;;;5026212;28;20120;-51
2021/11/26 07:11:55;;;;;;;0.63;0.30;;;21.00;35.00;;;;;;5030139;28;20068;-52
2021/11/26 07:14:21;;;;;;;1.52;0.40;;;21.00;34.40;;;;;;5020867;28;20033;-53
2021/11/26 07:16:47;;;;;;;0.88;0.50;;;21.00;34.40;;;;;;5015958;28;20030;-52
2021/11/26 07:19:13;;;;;;;0.90;0.40;;;21.00;34.40;;;;;;5016364;28;20043;-53
2021/11/26 07:21:38;;;;;;;1.63;0.60;;;21.00;34.40;;;;;;5012951;28;20446;-52
2021/11/26 07:24:04;;;;;;;1.65;0.50;;;21.00;34.40;;;;;;5018277;28;20087;-50
2021/11/26 07:26:30;;;;;;;1.27;0.60;;;21.00;34.40;;;;;;5014095;28;20373;-48
2021/11/26 07:28:57;;;;;;;1.40;0.70;;;21.00;34.40;;;;;;5017462;28;20037;-48
2021/11/26 07:31:25;;;;;;;2.15;0.55;;;21.00;34.40;;;;;;5013003;28;20083;-53
2021/11/26 07:33:51;;;;;;;1.25;0.32;;;21.00;34.40;;;;;;5019764;28;20041;-50
2021/11/26 07:36:17;;;;;;;1.08;0.55;;;21.00;34.30;;;;;;5016978;28;20083;-48
2021/11/26 07:38:43;;;;;;;1.55;0.52;;;21.00;34.30;;;;;;5015101;28;20099;-52
2021/11/26 07:41:09;;;;;;;1.48;0.52;;;21.00;34.30;;;;;;5011453;28;20456;-53
2021/11/26 07:43:35;;;;;;;2.00;0.57;;;21.00;34.30;;;;;;5013283;28;20113;-48
2021/11/26 07:46:02;;;;;;;1.33;0.50;;;20.90;34.20;;;;;;5013803;28;20132;-53
2021/11/26 07:48:28;;;;;;;1.50;0.40;;;21.00;34.30;;;;;;5017897;28;20029;-50
2021/11/26 07:50:55;;;;;;;1.23;0.40;;;21.00;34.20;;;;;;5022788;28;20240;-46
2021/11/26 07:53:21;;;;;;;1.63;0.60;;;20.90;34.20;;;;;;5017497;28;20124;-46
2021/11/26 07:55:49;;;;;;;1.52;0.60;;;21.00;34.30;;;;;;5018178;28;20030;-50
2021/11/26 07:58:16;;;;;;;1.55;0.60;;;20.90;34.20;;;;;;5017639;28;20408;-48
2021/11/26 08:00:42;;;;;;;1.40;0.60;;;20.90;34.20;;;;;;5017438;28;20041;-51
2021/11/26 08:03:08;;;;;;;2.00;0.60;;;21.00;34.30;;;;;;5021140;28;20372;-48
2021/11/26 08:05:34;;;;;;;1.63;0.70;;;21.00;34.30;;;;;;5013868;28;20053;-48
2021/11/26 08:08:01;;;;;;;1.85;0.60;;;20.90;34.30;;;;;;5013411;28;20041;-50
2021/11/26 08:10:27;;;;;;;1.92;0.80;;;21.00;35.00;;;;;;5011995;28;20029;-47
2021/11/26 08:12:53;;;;;;;1.30;0.80;;;20.90;34.30;;;;;;5029250;28;20404;-51
2021/11/26 08:15:20;;;;;;;1.40;0.55;;;20.90;34.30;;;;;;5013416;28;20052;-55
2021/11/26 08:17:47;;;;;;;2.10;0.60;;;21.00;34.40;;;;;;5017257;28;20033;-48
2021/11/26 08:20:18;;;;;;;1.30;0.70;;;21.00;34.40;;;;;;5012256;28;20037;-53
2021/11/26 08:22:43;;;;;;;1.60;0.80;;;21.00;34.50;;;;;;5012991;28;20038;-54
2021/11/26 08:25:10;;;;;;;0.90;0.40;;;21.00;34.60;;;;;;5011761;28;20033;-53
2021/11/26 08:27:36;;;;;;;0.88;0.50;;;21.00;34.60;;;;;;5012969;28;20044;-50
2021/11/26 08:30:03;;;;;;;1.95;0.70;;;21.10;34.70;;;;;;5009654;28;20504;-57
2021/11/26 08:32:28;;;;;;;1.80;0.90;;;21.20;34.80;;;;;;5012501;28;20041;-55
2021/11/26 08:34:54;;;;;;;1.38;0.77;;;21.30;34.70;;;;;;5015283;28;20128;-56
2021/11/26 08:37:20;;;;;;;1.55;0.73;;;21.40;34.60;;;;;;5016104;28;20353;-59
2021/11/26 08:39:48;;;;;;;1.85;0.77;;;21.50;34.60;;;;;;5015321;28;20044;-51
2021/11/26 08:42:14;;;;;;;1.95;0.80;;;21.60;34.50;;;;;;5020538;28;20049;-52
2021/11/26 08:44:40;;;;;;;2.13;0.90;;;21.70;34.30;;;;;;5013884;28;20125;-54
2021/11/26 08:47:05;;;;;;;2.53;0.82;;;21.80;34.20;;;;;;5021369;28;20465;-52
2021/11/26 08:49:31;;;;;;;1.80;0.73;;;21.80;34.00;;;;;;5019858;28;20041;-51
2021/11/26 08:51:57;;;;;;;1.58;0.73;;;21.90;33.90;;;;;;5022415;28;20060;-49
2021/11/26 08:54:25;;;;;;;2.25;0.70;;;22.00;33.80;;;;;;5021947;28;20088;-61
2021/11/26 08:56:56;;;;;;;1.88;0.80;;;22.10;33.70;;;;;;5017544;28;20126;-55
2021/11/26 08:59:23;;;;;;;2.88;1.08;;;22.20;33.60;;;;;;5023430;28;20041;-57
2021/11/26 09:01:50;;;;;;;4.10;1.20;;;22.20;33.40;;;;;;5018445;28;20096;-56
2021/11/26 09:04:16;;;;;;;4.93;1.38;;;22.30;33.30;;;;;;5016996;28;20125;-56
2021/11/26 09:06:41;;;;;;;2.70;1.08;;;22.30;33.20;;;;;;5018250;28;20042;-56
2021/11/26 09:09:07;;;;;;;2.10;1.10;;;22.40;33.20;;;;;;5023634;28;20052;-50
2021/11/26 09:11:33;;;;;;;2.38;0.88;;;22.40;33.10;;;;;;5018752;28;20033;-54
2021/11/26 09:14:00;;;;;;;2.85;1.00;;;22.50;33.00;;;;;;5019793;28;20449;-58
2021/11/26 09:16:26;;;;;;;2.38;1.10;;;22.60;33.00;;;;;;5016971;28;20025;-58
2021/11/26 09:18:52;;;;;;;4.35;1.20;;;22.60;32.90;;;;;;5026763;28;20033;-53
2021/11/26 09:21:18;;;;;;;3.13;1.27;;;22.60;32.80;;;;;;5020256;28;20054;-57
2021/11/26 09:23:44;;;;;;;1.67;1.00;;;22.70;32.70;;;;;;5019437;28;20045;-48
2021/11/26 09:26:10;;;;;;;2.30;1.10;;;22.80;32.60;;;;;;5014379;28;20445;-49
2021/11/26 09:28:36;;;;;;;2.35;1.13;;;22.80;32.50;;;;;;5016431;28;20080;-53
2021/11/26 09:31:02;;;;;;;2.47;1.05;;;22.90;32.40;;;;;;5018596;28;20026;-55
2021/11/26 09:33:35;;;;;;;2.67;1.00;;;22.90;32.30;;;;;;5019742;28;20136;-59
2021/11/26 09:36:02;;;;;;;2.05;0.95;;;23.00;32.20;;;;;;5026618;28;20037;-53
2021/11/26 09:38:28;;;;;;;1.65;0.90;;;23.00;32.10;;;;;;5019954;28;20345;-54
2021/11/26 09:40:54;;;;;;;2.47;1.02;;;23.10;32.00;;;;;;5016347;28;20033;-54
2021/11/26 09:43:19;;;;;;;2.55;1.40;;;23.10;31.90;;;;;;5017162;28;20329;-53
2021/11/26 09:45:45;;;;;;;3.55;1.40;;;23.20;31.90;;;;;;5021080;28;20163;-56
2021/11/26 09:48:11;;;;;;;2.83;1.20;;;23.20;31.90;;;;;;5021863;28;20033;-54
2021/11/26 09:50:37;;;;;;;3.40;1.20;;;23.30;32.00;;;;;;5020162;28;20022;-58
2021/11/26 09:53:26;;;;;;;2.95;1.00;;;23.40;32.00;;;;;;5027168;28;20046;-51
2021/11/26 09:56:00;;;;;;;2.95;1.20;;;23.40;31.80;;;;;;5025154;28;20030;-52
2021/11/26 09:58:28;;;;;;;2.45;1.08;;;23.40;31.80;;;;;;5013578;28;20100;-55
2021/11/26 10:00:57;;;;;;;2.63;1.08;;;23.50;31.80;;;;;;5020175;28;20178;-60
2021/11/26 10:03:43;;;;;;;2.15;1.05;;;23.50;31.60;;;;;;5023272;28;20029;-57
2021/11/26 10:06:24;;;;;;;3.03;1.10;;;23.60;31.50;;;;;;5026319;28;20457;-57
2021/11/26 10:08:59;;;;;;;3.05;1.05;;;23.60;31.40;;;;;;5017642;28;20121;-54
2021/11/26 10:11:27;;;;;;;2.47;1.15;;;23.60;31.40;;;;;;5016537;28;20385;-57
2021/11/26 10:13:54;;;;;;;2.60;1.10;;;23.60;31.40;;;;;;5023487;28;20041;-55
2021/11/26 10:16:21;;;;;;;2.53;1.02;;;23.60;31.40;;;;;;5018791;28;20349;-54
2021/11/26 10:18:50;;;;;;;2.17;0.98;;;23.60;31.30;;;;;;5016361;28;20133;-59
2021/11/26 10:21:17;;;;;;;3.28;0.95;;;23.70;31.30;;;;;;5018066;28;20034;-54
2021/11/26 10:23:46;;;;;;;2.30;0.98;;;23.60;31.20;;;;;;5027747;28;20038;-54
2021/11/26 10:26:13;;;;;;;1.67;1.10;;;23.70;31.20;;;;;;5017598;28;20077;-57
2021/11/26 10:28:41;;;;;;;3.33;1.23;;;23.60;31.10;;;;;;5016660;28;20402;-54
2021/11/26 10:31:26;;;;;;;2.30;1.20;;;23.70;31.10;;;;;;5016970;28;20026;-55
2021/11/26 10:33:58;;;;;;;2.25;1.10;;;23.60;30.90;;;;;;5033531;28;20076;-59
2021/11/26 10:36:25;;;;;;;3.05;1.35;;;23.60;30.90;;;;;;5017426;28;20095;-56
2021/11/26 10:38:52;;;;;;;2.60;1.10;;;23.50;30.90;;;;;;5016683;28;20030;-49
2021/11/26 10:41:26;;;;;;;2.88;1.40;;;23.50;30.90;;;;;;5029274;28;20170;-57
2021/11/26 10:44:08;;;;;;;1.92;1.00;;;23.40;30.90;;;;;;5026295;28;20084;-57
2021/11/26 10:46:48;;;;;;;1.98;1.10;;;23.40;30.90;;;;;;5027773;28;20030;-54
2021/11/26 10:59:42;;;;;;;2.10;1.10;;;23.10;30.80;;;;;;5032449;28;20052;-54
2021/11/26 11:02:08;;;;;;;2.40;1.00;;;23.10;30.90;;;;;;5018971;28;20041;-52
2021/11/26 11:04:36;;;;;;;1.48;0.80;;;23.00;30.80;;;;;;5021805;28;20143;-58
2021/11/26 11:07:07;;;;;;;2.42;1.00;;;23.00;30.80;;;;;;5016199;28;20062;-54
2021/11/26 11:09:39;;;;;;;2.65;1.20;;;23.00;30.90;;;;;;5018674;28;20022;-56
2021/11/26 11:12:05;;;;;;;2.05;0.90;;;23.00;30.90;;;;;;5015099;28;20034;-54
2021/11/26 11:14:31;;;;;;;3.38;1.23;;;22.90;30.80;;;;;;5021589;28;20040;-55
2021/11/26 11:16:57;;;;;;;1.77;0.80;;;22.90;30.80;;;;;;5035545;28;20026;-60
2021/11/26 11:19:24;;;;;;;3.10;1.20;;;23.00;30.90;;;;;;5021883;28;20188;-56
2021/11/26 11:21:52;;;;;;;1.80;1.08;;;22.90;30.80;;;;;;5016916;28;20037;-54
2021/11/26 11:24:19;;;;;;;1.88;1.10;;;22.90;30.80;;;;;;5024097;28;20025;-57
2021/11/26 11:26:47;;;;;;;3.90;1.40;;;22.90;30.80;;;;;;5015573;28;20453;-55
2021/11/26 11:29:19;;;;;;;2.97;1.05;;;22.90;30.80;;;;;;5014996;28;20042;-53
2021/11/26 11:31:46;;;;;;;2.28;0.95;;;22.90;30.80;;;;;;5014293;28;20460;-54
2021/11/26 11:34:14;;;;;;;3.28;0.98;;;22.80;30.80;;;;;;5020404;28;20383;-58
2021/11/26 11:36:41;;;;;;;2.17;1.02;;;22.80;30.80;;;;;;5026400;28;20412;-56
2021/11/26 11:39:08;;;;;;;2.53;1.10;;;22.80;30.80;;;;;;5015676;28;20355;-55
2021/11/26 11:41:53;;;;;;;1.23;0.80;;;22.80;30.80;;;;;;5014782;28;20068;-51
2021/11/26 11:44:27;;;;;;;;;;;22.80;31.40;;;;;;5015441;28;20133;-50
2021/11/26 11:46:54;;;;;;;1.75;0.93;;;22.70;30.80;;;;;;5014432;28;19996;-55
2021/11/26 11:49:28;;;;;;;3.45;1.20;;;22.70;30.80;;;;;;5024468;28;20033;-54
2021/11/26 11:52:00;;;;;;;3.20;1.10;;;22.70;30.80;;;;;;5020087;28;20043;-53
2021/11/26 11:54:47;;;;;;;2.45;1.02;;;22.70;30.90;;;;;;5019196;28;20083;-58
2021/11/26 11:57:25;;;;;;;3.95;1.13;;;22.70;30.90;;;;;;5020177;28;20045;-56
2021/11/26 11:59:53;;;;;;;2.38;1.05;;;22.70;30.90;;;;;;5014160;28;20461;-56
2021/11/26 12:02:27;;;;;;;2.05;0.98;;;22.60;30.90;;;;;;5015105;28;20076;-55
2021/11/26 12:04:55;;;;;;;1.38;0.80;;;22.60;30.80;;;;;;5023564;28;20033;-56
2021/11/26 12:07:27;;;;;;;1.73;0.90;;;22.60;30.90;;;;;;5016792;28;20037;-54
2021/11/26 12:10:10;;;;;;;2.50;1.10;;;22.60;30.80;;;;;;5034735;28;20033;-56
2021/11/26 12:12:52;;;;;;;1.67;1.07;;;22.60;30.80;;;;;;5022837;28;20083;-55
2021/11/26 12:15:34;;;;;;;1.83;1.00;;;22.60;30.80;;;;;;5015429;28;20113;-56
2021/11/26 12:18:06;;;;;;;2.15;0.90;;;22.60;30.90;;;;;;5014017;28;21452;-54
2021/11/26 12:20:33;;;;;;;2.30;1.20;;;22.60;31.00;;;;;;5019696;28;20036;-53
2021/11/26 12:23:16;;;;;;;1.30;0.90;;;22.60;31.00;;;;;;5019440;28;20444;-57
2021/11/26 12:28:35;;;;;;;1.00;0.68;;;22.60;31.00;;;;;;5011881;28;20048;-53
2021/11/26 12:31:05;;;;;;;1.55;0.80;;;22.50;30.90;;;;;;5011073;28;20060;-54
2021/11/26 12:33:33;;;;;;;2.45;1.10;;;22.50;30.90;;;;;;5013252;28;20042;-54
2021/11/26 12:36:01;;;;;;;1.42;0.82;;;22.50;30.90;;;;;;5017790;28;20026;-59
2021/11/26 12:38:49;;;;;;;1.25;0.82;;;22.50;30.90;;;;;;5018563;28;20048;-56
2021/11/26 12:41:28;;;;;;;1.67;0.88;;;22.50;30.90;;;;;;5014195;28;20032;-56
2021/11/26 12:43:54;;;;;;;2.17;0.90;;;22.50;30.90;;;;;;5015459;28;20168;-59
2021/11/26 12:46:26;;;;;;;3.40;1.40;;;22.40;30.90;;;;;;5022329;28;20033;-52
2021/11/26 12:49:07;;;;;;;2.17;0.70;;;22.40;31.00;;;;;;5012331;28;20364;-55
2021/11/26 12:51:37;;;;;;;1.30;0.98;;;22.40;31.60;;;;;;5014561;28;20147;-50
2021/11/26 12:54:05;;;;;;;1.90;0.77;;;22.40;31.00;;;;;;5013503;28;20180;-53
2021/11/26 12:56:34;;;;;;;2.00;0.88;;;22.40;31.10;;;;;;5012407;28;20503;-53
2021/11/26 12:59:00;;;;;;;2.30;0.88;;;22.40;31.10;;;;;;5015106;28;20749;-59
2021/11/26 13:01:30;;;;;;;3.75;1.58;;;22.40;31.50;;;;;;5016180;28;20041;-52
2021/11/26 13:03:57;;;;;;;1.90;1.10;;;22.40;31.50;;;;;;5010923;28;20100;-57